createdAt,value
2023-03-05T00:01:18.278Z,36.72
2023-03-05T00:03:46.533Z,36.67
2023-03-05T00:06:13.223Z,36.55
2023-03-05T00:08:40.204Z,40.38
2023-03-05T00:11:09.832Z,36.75
2023-03-05T00:13:37.094Z,35.75
2023-03-05T00:16:05.719Z,37.22
2023-03-05T00:18:32.782Z,34.10
2023-03-05T00:21:02.351Z,35.13
2023-03-05T00:23:29.575Z,34.28
2023-03-05T00:25:57.832Z,38.10
2023-03-05T00:28:25.223Z,32.78
2023-03-05T00:30:53.824Z,35.00
2023-03-05T00:33:22.111Z,31.10
2023-03-05T00:35:49.473Z,33.55
2023-03-05T00:38:16.153Z,34.95
2023-03-05T00:40:42.951Z,34.92
2023-03-05T00:43:09.814Z,38.03
2023-03-05T00:45:36.817Z,38.53
2023-03-05T00:48:03.967Z,34.55
2023-03-05T00:50:30.751Z,32.97
2023-03-05T00:52:57.381Z,41.47
2023-03-05T00:55:23.976Z,35.95
2023-03-05T00:57:50.724Z,35.08
2023-03-05T01:00:17.716Z,36.40
2023-03-05T01:02:44.397Z,32.38
2023-03-05T01:05:13.144Z,40.38
2023-03-05T01:07:39.898Z,33.83
2023-03-05T01:10:07.281Z,38.05
2023-03-05T01:12:33.966Z,29.95
2023-03-05T01:15:00.597Z,31.90
2023-03-05T01:17:27.244Z,35.13
2023-03-05T01:19:53.973Z,32.85
2023-03-05T01:22:20.596Z,32.38
2023-03-05T01:24:47.173Z,33.75
2023-03-05T01:27:14.064Z,30.65
2023-03-05T01:29:40.685Z,31.17
2023-03-05T01:32:07.315Z,35.80
2023-03-05T01:34:34.004Z,28.63
2023-03-05T01:37:00.577Z,32.97
2023-03-05T01:39:27.178Z,31.67
2023-03-05T01:41:53.950Z,32.03
2023-03-05T01:44:23.442Z,33.70
2023-03-05T01:46:50.259Z,32.50
2023-03-05T01:52:19.385Z,32.45
2023-03-05T01:55:04.475Z,28.95
2023-03-05T01:57:36.501Z,36.90
2023-03-05T02:00:08.486Z,35.17
2023-03-05T02:02:35.189Z,31.60
2023-03-05T02:05:04.228Z,31.27
2023-03-05T02:07:31.421Z,32.20
2023-03-05T02:09:58.128Z,30.83
2023-03-05T02:12:24.855Z,31.92
2023-03-05T02:14:58.343Z,37.55
2023-03-05T02:17:27.471Z,32.13
2023-03-05T02:19:55.580Z,28.10
2023-03-05T02:22:23.332Z,30.15
2023-03-05T02:24:50.109Z,35.15
2023-03-05T02:27:17.539Z,32.35
2023-03-05T02:29:45.919Z,36.67
2023-03-05T02:32:13.045Z,36.55
2023-03-05T02:34:39.872Z,33.50
2023-03-05T02:37:09.047Z,28.85
2023-03-05T02:39:35.813Z,32.85
2023-03-05T02:42:02.441Z,31.50
2023-03-05T02:44:29.062Z,29.20
2023-03-05T02:46:55.672Z,33.58
2023-03-05T02:49:22.237Z,35.95
2023-03-05T02:51:48.948Z,34.42
2023-03-05T02:54:15.516Z,27.85
2023-03-05T02:56:43.415Z,33.47
2023-03-05T02:59:10.087Z,30.35
2023-03-05T03:01:36.937Z,25.40
2023-03-05T03:04:03.578Z,32.13
2023-03-05T03:06:30.285Z,30.85
2023-03-05T03:08:57.851Z,34.65
2023-03-05T03:11:24.593Z,37.50
2023-03-05T03:13:51.441Z,30.48
2023-03-05T03:16:18.100Z,35.78
2023-03-05T03:18:47.327Z,34.67
2023-03-05T03:21:18.871Z,34.03
2023-03-05T03:23:45.589Z,29.40
2023-03-05T03:26:12.291Z,30.83
2023-03-05T03:28:38.940Z,31.02
2023-03-05T03:31:05.642Z,31.40
2023-03-05T03:33:32.480Z,33.60
2023-03-05T03:35:59.241Z,35.65
2023-03-05T03:38:25.995Z,37.22
2023-03-05T03:40:52.786Z,36.80
2023-03-05T03:43:19.420Z,31.30
2023-03-05T03:45:46.477Z,37.90
2023-03-05T03:48:13.197Z,36.03
2023-03-05T03:50:41.723Z,35.03
2023-03-05T03:53:08.572Z,35.75
2023-03-05T03:55:35.483Z,35.20
2023-03-05T03:58:02.158Z,36.40
2023-03-05T04:00:28.892Z,35.20
2023-03-05T04:02:55.499Z,37.50
2023-03-05T04:05:22.176Z,32.15
2023-03-05T04:07:48.935Z,30.40
2023-03-05T04:10:15.558Z,38.38
2023-03-05T04:12:43.463Z,35.95
2023-03-05T04:15:10.589Z,41.55
2023-03-05T04:17:37.395Z,42.85
2023-03-05T04:20:05.872Z,37.28
2023-03-05T04:22:32.468Z,36.53
2023-03-05T04:24:59.478Z,41.00
2023-03-05T04:27:26.127Z,31.73
2023-03-05T04:29:52.773Z,29.83
2023-03-05T04:32:23.118Z,33.97
2023-03-05T04:34:49.902Z,40.13
2023-03-05T04:37:16.876Z,36.60
2023-03-05T04:39:43.714Z,30.02
2023-03-05T04:42:10.484Z,35.55
2023-03-05T04:44:37.113Z,32.40
2023-03-05T04:47:03.884Z,34.50
2023-03-05T04:49:30.526Z,30.38
2023-03-05T04:51:57.617Z,31.88
2023-03-05T04:54:24.733Z,38.25
2023-03-05T04:56:51.357Z,34.90
2023-03-05T04:59:18.002Z,39.00
2023-03-05T05:01:44.712Z,35.67
2023-03-05T05:04:11.355Z,38.80
2023-03-05T05:06:38.028Z,33.95
2023-03-05T05:09:04.623Z,33.50
2023-03-05T05:11:31.216Z,36.58
2023-03-05T05:13:57.928Z,39.55
2023-03-05T05:16:24.663Z,35.22
2023-03-05T05:18:51.323Z,32.90
2023-03-05T05:21:20.313Z,34.42
2023-03-05T05:23:47.072Z,41.20
2023-03-05T05:26:14.319Z,35.60
2023-03-05T05:28:43.435Z,38.35
2023-03-05T05:31:12.588Z,32.63
2023-03-05T05:33:39.322Z,35.75
2023-03-05T05:36:06.926Z,35.55
2023-03-05T05:38:33.587Z,33.42
2023-03-05T05:41:05.268Z,36.20
2023-03-05T05:43:31.979Z,33.40
2023-03-05T05:46:02.234Z,41.33
2023-03-05T05:48:30.093Z,37.35
2023-03-05T05:50:56.751Z,35.28
2023-03-05T05:53:23.362Z,32.35
2023-03-05T05:55:50.058Z,38.50
2023-03-05T05:58:16.685Z,40.15
2023-03-05T06:00:43.474Z,39.08
2023-03-05T06:03:10.185Z,37.25
2023-03-05T06:05:36.866Z,34.53
2023-03-05T06:08:03.603Z,33.38
2023-03-05T06:10:30.213Z,33.33
2023-03-05T06:12:56.845Z,36.70
2023-03-05T06:15:23.447Z,39.58
2023-03-05T06:17:50.140Z,37.08
2023-03-05T06:20:16.979Z,36.90
2023-03-05T06:22:43.552Z,34.60
2023-03-05T06:25:11.412Z,33.15
2023-03-05T06:27:38.042Z,38.00
2023-03-05T06:30:05.675Z,35.65
2023-03-05T06:32:32.423Z,33.75
2023-03-05T06:34:59.056Z,35.08
2023-03-05T06:37:25.647Z,34.60
2023-03-05T06:39:52.210Z,37.60
2023-03-05T06:42:19.347Z,39.28
2023-03-05T06:44:48.288Z,38.90
2023-03-05T06:47:15.274Z,40.60
2023-03-05T06:49:41.942Z,34.05
2023-03-05T06:52:10.191Z,35.65
2023-03-05T06:54:36.962Z,35.95
2023-03-05T06:57:03.602Z,39.00
2023-03-05T06:59:30.235Z,31.25
2023-03-05T07:01:56.833Z,34.90
2023-03-05T07:04:24.335Z,33.00
2023-03-05T07:06:51.172Z,36.22
2023-03-05T07:09:17.793Z,32.28
2023-03-05T07:11:44.388Z,35.38
2023-03-05T07:14:11.037Z,35.80
2023-03-05T07:16:37.713Z,30.23
2023-03-05T07:19:05.094Z,36.30
2023-03-05T07:21:32.749Z,35.67
2023-03-05T07:24:00.945Z,40.20
2023-03-05T07:26:27.820Z,37.03
2023-03-05T07:28:54.690Z,36.83
2023-03-05T07:31:23.732Z,32.97
2023-03-05T07:33:50.556Z,38.05
2023-03-05T07:36:17.241Z,35.67
2023-03-05T07:38:43.884Z,39.67
2023-03-05T07:41:12.475Z,31.77
2023-03-05T07:43:39.289Z,35.13
2023-03-05T07:46:07.387Z,35.13
2023-03-05T07:48:34.117Z,34.20
2023-03-05T07:51:10.434Z,31.13
2023-03-05T07:53:37.095Z,34.88
2023-03-05T07:56:04.077Z,30.23
2023-03-05T07:58:30.731Z,35.05
2023-03-05T08:00:57.489Z,35.05
2023-03-05T08:03:24.153Z,31.88
2023-03-05T08:05:50.803Z,29.30
2023-03-05T08:08:17.654Z,37.63
2023-03-05T08:10:44.313Z,40.38
2023-03-05T08:13:11.003Z,36.97
2023-03-05T08:15:38.084Z,29.98
2023-03-05T08:18:04.908Z,37.88
2023-03-05T08:20:31.583Z,33.28
2023-03-05T08:22:58.232Z,29.17
2023-03-05T08:25:24.886Z,34.47
2023-03-05T08:27:51.638Z,30.83
2023-03-05T08:30:19.927Z,36.35
2023-03-05T08:32:46.588Z,34.05
2023-03-05T08:35:13.267Z,38.03
2023-03-05T08:37:39.946Z,37.95
2023-03-05T08:40:07.161Z,36.33
2023-03-05T08:42:33.774Z,31.88
2023-03-05T08:45:00.375Z,40.58
2023-03-05T08:47:27.349Z,33.40
2023-03-05T08:49:57.049Z,32.05
2023-03-05T08:52:23.667Z,36.97
2023-03-05T08:54:50.313Z,36.42
2023-03-05T08:57:16.979Z,32.47
2023-03-05T08:59:43.730Z,37.28
2023-03-05T09:02:12.470Z,32.60
2023-03-05T09:04:39.164Z,36.00
2023-03-05T09:07:06.031Z,42.92
2023-03-05T09:09:33.030Z,39.95
2023-03-05T09:12:00.550Z,34.13
2023-03-05T09:14:28.600Z,35.38
2023-03-05T09:16:56.122Z,30.67
2023-03-05T09:19:22.763Z,32.67
2023-03-05T09:21:49.397Z,42.92
2023-03-05T09:24:16.025Z,37.85
2023-03-05T09:26:42.747Z,31.50
2023-03-05T09:29:09.508Z,36.85
2023-03-05T09:31:37.826Z,29.50
2023-03-05T09:34:05.041Z,32.95
2023-03-05T09:36:32.139Z,33.17
2023-03-05T09:38:58.964Z,34.80
2023-03-05T09:42:05.492Z,38.13
2023-03-05T09:44:38.536Z,32.80
2023-03-05T09:52:55.316Z,33.10
2023-03-05T09:55:27.703Z,31.17
2023-03-05T09:57:56.598Z,37.97
2023-03-05T10:00:36.051Z,31.20
2023-03-05T10:03:06.666Z,43.20
2023-03-05T10:05:54.823Z,39.10
2023-03-05T10:08:22.769Z,35.10
2023-03-05T10:10:52.456Z,26.60
2023-03-05T10:13:38.249Z,33.30
2023-03-05T10:16:27.776Z,37.85
2023-03-05T10:19:00.653Z,33.90
2023-03-05T10:21:31.108Z,35.95
2023-03-05T10:24:25.762Z,30.75
2023-03-05T10:27:10.643Z,31.02
2023-03-05T10:30:01.694Z,33.60
2023-03-05T10:33:08.130Z,34.58
2023-03-05T10:35:50.657Z,37.30
2023-03-05T10:41:22.582Z,34.20
2023-03-05T10:43:56.264Z,41.22
2023-03-05T10:46:24.226Z,31.13
2023-03-05T10:48:55.662Z,31.75
2023-03-05T10:51:33.953Z,35.97
2023-03-05T10:54:29.811Z,37.35
2023-03-05T10:57:13.938Z,38.60
2023-03-05T10:59:44.463Z,29.90
2023-03-05T11:02:11.236Z,39.88
2023-03-05T11:04:38.965Z,43.53
2023-03-05T11:07:26.530Z,39.60
2023-03-05T11:12:37.870Z,42.33
2023-03-05T11:15:26.436Z,40.40
2023-03-05T11:18:06.898Z,32.42
2023-03-05T11:20:35.909Z,33.63
2023-03-05T11:23:10.734Z,39.33
2023-03-05T11:25:58.401Z,35.75
2023-03-05T11:31:23.489Z,35.72
2023-03-05T11:34:08.259Z,36.55
2023-03-05T11:36:40.373Z,33.97
2023-03-05T11:39:12.122Z,33.55
2023-03-05T11:41:41.405Z,28.75
2023-03-05T11:44:34.273Z,39.22
2023-03-05T11:49:32.931Z,34.33
2023-03-05T11:54:48.032Z,38.85
2023-03-05T11:57:15.195Z,32.17
2023-03-05T11:59:41.910Z,35.58
2023-03-05T12:02:19.705Z,29.95
2023-03-05T12:04:46.562Z,34.28
2023-03-05T12:07:15.165Z,34.35
2023-03-05T12:09:43.311Z,30.13
2023-03-05T12:12:38.693Z,27.05
2023-03-05T12:15:46.328Z,43.65
2023-03-05T12:18:36.315Z,27.88
2023-03-05T12:21:32.856Z,27.30
2023-03-05T12:24:01.767Z,23.77
2023-03-05T12:27:06.138Z,23.40
2023-03-05T12:32:31.764Z,23.33
2023-03-05T12:35:23.352Z,23.92
2023-03-05T12:40:32.043Z,24.00
2023-03-05T12:43:00.583Z,23.60
2023-03-05T12:45:43.711Z,25.50
2023-03-05T12:50:52.685Z,32.97
2023-03-05T12:53:20.548Z,26.52
2023-03-05T12:56:16.888Z,22.85
2023-03-05T12:58:45.374Z,27.42
2023-03-05T13:01:34.689Z,27.13
2023-03-05T13:04:10.503Z,24.90
2023-03-05T13:06:38.298Z,21.60
2023-03-05T13:09:08.739Z,21.70
2023-03-05T13:11:37.743Z,25.25
2023-03-05T13:14:04.371Z,29.25
2023-03-05T13:16:37.614Z,20.65
2023-03-05T13:19:04.415Z,23.67
2023-03-05T13:21:32.594Z,21.08
2023-03-05T13:24:01.034Z,20.33
2023-03-05T13:26:29.122Z,20.80
2023-03-05T13:31:44.139Z,23.10
2023-03-05T13:34:24.582Z,22.95
2023-03-05T13:36:56.301Z,27.33
2023-03-05T13:39:27.454Z,21.40
2023-03-05T13:42:16.745Z,21.35
2023-03-05T13:44:43.597Z,22.20
2023-03-05T13:47:17.982Z,19.23
2023-03-05T13:49:45.490Z,20.83
2023-03-05T13:52:15.877Z,18.30
2023-03-05T13:54:42.600Z,19.23
2023-03-05T13:57:33.744Z,17.80
2023-03-05T14:00:01.098Z,22.00
2023-03-05T14:02:27.877Z,18.95
2023-03-05T14:04:54.639Z,23.38
2023-03-05T14:09:59.877Z,17.73
2023-03-05T14:12:43.936Z,16.15
2023-03-05T14:15:23.152Z,20.77
2023-03-05T14:17:50.050Z,20.08
2023-03-05T14:20:32.750Z,20.95
2023-03-05T14:25:29.707Z,17.77
2023-03-05T14:27:57.090Z,26.98
2023-03-05T14:30:24.307Z,19.15
2023-03-05T14:32:52.437Z,31.67
2023-03-05T14:35:22.310Z,23.63
2023-03-05T14:37:50.243Z,24.02
2023-03-05T14:40:20.697Z,20.67
2023-03-05T14:43:04.089Z,25.55
2023-03-05T14:45:33.332Z,25.58
2023-03-05T14:48:01.210Z,20.08
2023-03-05T14:50:29.945Z,27.05
2023-03-05T14:52:59.145Z,20.60
2023-03-05T14:55:30.260Z,17.42
2023-03-05T14:58:03.056Z,24.08
2023-03-05T15:00:29.980Z,24.65
2023-03-05T15:02:58.002Z,23.65
2023-03-05T15:05:24.908Z,21.85
2023-03-05T15:07:53.818Z,31.75
2023-03-05T15:10:22.720Z,24.33
2023-03-05T15:12:50.505Z,27.88
2023-03-05T15:15:17.810Z,23.35
2023-03-05T15:17:47.552Z,27.90
2023-03-05T15:20:17.676Z,27.27
2023-03-05T15:22:44.407Z,28.88
2023-03-05T15:25:11.422Z,30.08
2023-03-05T15:27:39.198Z,24.38
2023-03-05T15:30:07.102Z,25.80
2023-03-05T15:32:33.840Z,26.73
2023-03-05T15:35:00.804Z,26.33
2023-03-05T15:37:27.844Z,29.23
2023-03-05T15:39:54.500Z,27.40
2023-03-05T15:42:21.196Z,27.77
2023-03-05T15:44:48.096Z,28.80
2023-03-05T15:47:14.930Z,25.85
2023-03-05T15:49:41.712Z,28.85
2023-03-05T15:52:08.425Z,27.33
2023-03-05T15:54:36.308Z,25.55
2023-03-05T15:57:03.465Z,30.35
2023-03-05T15:59:30.489Z,22.23
2023-03-05T16:01:57.349Z,22.38
2023-03-05T16:04:24.140Z,25.67
2023-03-05T16:06:50.929Z,24.92
2023-03-05T16:09:18.286Z,20.80
2023-03-05T16:11:47.944Z,17.33
2023-03-05T16:14:17.335Z,20.52
2023-03-05T16:16:44.300Z,18.90
2023-03-05T16:19:14.146Z,20.67
2023-03-05T16:21:41.145Z,18.63
2023-03-05T16:24:08.081Z,15.35
2023-03-05T16:26:36.495Z,16.27
2023-03-05T16:29:04.241Z,17.45
2023-03-05T16:31:34.368Z,15.25
2023-03-05T16:34:01.686Z,13.93
2023-03-05T16:36:30.470Z,15.27
2023-03-05T16:38:58.804Z,13.75
2023-03-05T16:41:29.334Z,15.65
2023-03-05T16:43:56.551Z,19.25
2023-03-05T16:46:25.922Z,13.60
2023-03-05T16:48:52.734Z,17.77
2023-03-05T16:51:20.795Z,17.02
2023-03-05T16:53:47.884Z,21.38
2023-03-05T16:56:15.045Z,18.38
2023-03-05T16:58:45.067Z,17.85
2023-03-05T17:01:14.757Z,15.32
2023-03-05T17:03:43.412Z,15.63
2023-03-05T17:06:12.774Z,11.07
2023-03-05T17:08:40.359Z,16.90
2023-03-05T17:11:07.120Z,12.02
2023-03-05T17:13:33.875Z,16.10
2023-03-05T17:16:00.646Z,14.35
2023-03-05T17:18:27.578Z,16.25
2023-03-05T17:20:54.321Z,17.30
2023-03-05T17:23:21.207Z,15.82
2023-03-05T17:25:47.820Z,15.48
2023-03-05T17:28:14.548Z,19.42
2023-03-05T17:30:41.179Z,19.17
2023-03-05T17:33:07.847Z,19.17
2023-03-05T17:35:35.404Z,14.88
2023-03-05T17:38:03.737Z,16.50
2023-03-05T17:40:32.257Z,15.65
2023-03-05T17:42:58.952Z,16.83
2023-03-05T17:45:25.798Z,14.60
2023-03-05T17:47:53.252Z,13.73
2023-03-05T17:50:20.041Z,12.98
2023-03-05T17:52:46.688Z,13.90
2023-03-05T17:55:14.886Z,15.20
2023-03-05T17:57:42.444Z,14.85
2023-03-05T18:00:16.401Z,18.20
2023-03-05T18:02:43.037Z,16.45
2023-03-05T18:05:10.168Z,16.27
2023-03-05T18:07:37.059Z,15.70
2023-03-05T18:10:04.666Z,14.82
2023-03-05T18:12:31.330Z,17.58
2023-03-05T18:14:58.105Z,17.00
2023-03-05T18:17:24.853Z,14.32
2023-03-05T18:19:51.742Z,15.02
2023-03-05T18:22:18.459Z,14.52
2023-03-05T18:24:45.153Z,11.77
2023-03-05T18:27:12.083Z,14.15
2023-03-05T18:29:38.747Z,11.98
2023-03-05T18:32:05.852Z,18.05
2023-03-05T18:34:32.553Z,13.02
2023-03-05T18:37:00.724Z,13.55
2023-03-05T18:39:33.451Z,10.45
2023-03-05T18:42:00.359Z,14.90
2023-03-05T18:44:26.995Z,14.85
2023-03-05T18:46:53.712Z,15.13
2023-03-05T18:49:20.493Z,14.73
2023-03-05T18:51:47.140Z,14.70
2023-03-05T18:54:13.892Z,15.00
2023-03-05T18:56:40.517Z,15.07
2023-03-05T18:59:07.168Z,12.77
2023-03-05T19:01:33.796Z,21.75
2023-03-05T19:04:00.455Z,16.45
2023-03-05T19:06:27.151Z,15.70
2023-03-05T19:09:00.785Z,17.02
2023-03-05T19:11:27.438Z,14.38
2023-03-05T19:13:54.090Z,15.93
2023-03-05T19:16:23.970Z,24.58
2023-03-05T19:19:17.639Z,15.93
2023-03-05T19:21:46.214Z,19.83
2023-03-05T19:24:13.013Z,18.17
2023-03-05T19:26:39.876Z,18.35
2023-03-05T19:29:06.703Z,15.55
2023-03-05T19:31:33.578Z,20.98
2023-03-05T19:34:01.130Z,14.18
2023-03-05T19:36:27.778Z,17.30
2023-03-05T19:38:54.708Z,12.27
2023-03-05T19:41:21.698Z,13.00
2023-03-05T19:43:49.821Z,18.58
2023-03-05T19:46:17.399Z,11.20
2023-03-05T19:48:44.238Z,16.15
2023-03-05T19:51:13.014Z,15.85
2023-03-05T19:53:40.522Z,13.13
2023-03-05T19:56:09.714Z,13.02
2023-03-05T19:58:36.422Z,14.35
2023-03-05T20:01:12.887Z,14.52
2023-03-05T20:03:44.587Z,11.88
2023-03-05T20:06:11.724Z,16.92
2023-03-05T20:08:38.517Z,16.17
2023-03-05T20:11:05.578Z,15.95
2023-03-05T20:13:32.501Z,14.40
2023-03-05T20:16:00.246Z,19.17
2023-03-05T20:18:26.910Z,18.20
2023-03-05T20:20:55.312Z,16.02
2023-03-05T20:23:24.371Z,13.85
2023-03-05T20:25:51.926Z,13.88
2023-03-05T20:28:25.626Z,18.40
2023-03-05T20:30:55.067Z,17.25
2023-03-05T20:33:21.852Z,20.08
2023-03-05T20:35:48.867Z,16.88
2023-03-05T20:38:21.014Z,18.42
2023-03-05T20:40:48.804Z,16.33
2023-03-05T20:43:15.769Z,19.55
2023-03-05T20:45:42.495Z,19.00
2023-03-05T20:48:09.120Z,21.52
2023-03-05T20:50:35.828Z,19.30
2023-03-05T20:53:03.872Z,19.17
2023-03-05T20:55:30.970Z,17.80
2023-03-05T20:57:57.738Z,21.58
2023-03-05T21:00:24.506Z,21.95
2023-03-05T21:02:51.582Z,20.50
2023-03-05T21:05:20.033Z,17.30
2023-03-05T21:07:46.791Z,20.15
2023-03-05T21:10:14.137Z,22.05
2023-03-05T21:12:40.713Z,19.27
2023-03-05T21:15:11.029Z,24.90
2023-03-05T21:17:37.695Z,19.83
2023-03-05T21:20:06.116Z,69.80
2023-03-05T21:22:33.111Z,23.73
2023-03-05T21:25:21.276Z,19.90
2023-03-05T21:27:57.923Z,22.90
2023-03-05T21:30:31.448Z,20.05
2023-03-05T21:33:00.164Z,23.73
2023-03-05T21:35:27.005Z,24.40
2023-03-05T21:37:53.676Z,24.77
2023-03-05T21:40:20.798Z,29.27
2023-03-05T21:42:47.868Z,22.77
2023-03-05T21:45:18.972Z,23.50
2023-03-05T21:47:45.833Z,26.98
2023-03-05T21:50:13.084Z,23.83
2023-03-05T21:52:39.701Z,26.20
2023-03-05T21:55:06.495Z,30.55
2023-03-05T21:57:33.169Z,25.77
2023-03-05T21:59:59.784Z,22.77
2023-03-05T22:02:26.356Z,25.27
2023-03-05T22:04:52.962Z,25.58
2023-03-05T22:07:19.583Z,29.02
2023-03-05T22:09:46.275Z,30.33
2023-03-05T22:12:30.170Z,23.25
2023-03-05T22:14:56.735Z,19.92
2023-03-05T22:17:23.348Z,25.05
2023-03-05T22:19:49.984Z,23.85
2023-03-05T22:22:16.567Z,22.00
2023-03-05T22:24:43.161Z,26.67
2023-03-05T22:27:10.002Z,21.95
2023-03-05T22:29:36.599Z,22.50
2023-03-05T22:32:03.263Z,22.58
2023-03-05T22:34:29.894Z,23.25
2023-03-05T22:36:56.626Z,21.42
2023-03-05T22:39:23.275Z,20.17
2023-03-05T22:41:49.900Z,18.83
2023-03-05T22:44:16.825Z,20.85
2023-03-05T22:46:44.361Z,19.25
2023-03-05T22:49:10.978Z,21.83
2023-03-05T22:51:37.601Z,20.73
2023-03-05T22:54:04.296Z,19.50
2023-03-05T22:56:30.938Z,20.42
2023-03-05T22:58:57.970Z,19.15
2023-03-05T23:01:25.202Z,18.90
2023-03-05T23:04:40.505Z,21.10
2023-03-05T23:07:07.119Z,19.63
2023-03-05T23:09:33.752Z,20.10
2023-03-05T23:12:00.423Z,14.48
2023-03-05T23:14:27.111Z,18.38
2023-03-05T23:16:53.747Z,19.67
2023-03-05T23:19:20.337Z,21.15
2023-03-05T23:21:47.205Z,19.33
2023-03-05T23:24:13.997Z,18.38
2023-03-05T23:26:40.612Z,16.25
2023-03-05T23:29:07.380Z,17.88
2023-03-05T23:31:35.264Z,16.55
2023-03-05T23:34:01.871Z,23.17
2023-03-05T23:36:28.600Z,16.25
2023-03-05T23:38:58.031Z,15.15
2023-03-05T23:41:24.645Z,15.10
2023-03-05T23:43:51.234Z,18.88
2023-03-05T23:46:17.871Z,15.88
2023-03-05T23:48:44.617Z,22.17
2023-03-05T23:51:11.289Z,19.00
2023-03-05T23:53:37.940Z,19.67
2023-03-05T23:56:09.945Z,17.05
2023-03-05T23:58:37.217Z,19.05
